KIRK/IRK METAR and TAF weather

Enter ICAO airport designator
Station Type Date Time Source
KIRK METAR 2021/09/23 22:55 UTC NOAA

KIRK 232255Z AUTO 23004KT 10SM CLR 22/M01 A3003 RMK AO2 SLP171 T02171011


Station Type Date Time Source
KIRK Decoded METAR 2021/09/23 22:55 UTC NOAA

KIRKSVILLE REGIONAL AIRPORT , MO, United States (KIRK) 40-06N 092-33W 293M
Sep 23, 2021 - 06:55 PM EDT / 2021.09.23 2255 UTC
Wind: from the SW (230 degrees) at 5 MPH (4 KT):0
Visibility: 10 mile(s):0
Sky conditions: clear
Temperature: 71.1 F (21.7 C)
Dew Point: 30.0 F (-1.1 C)
Relative Humidity: 21%
Pressure (altimeter): 30.03 in. Hg (1016 hPa)
ob: KIRK 232255Z AUTO 23004KT 10SM CLR 22/M01 A3003 RMK AO2 SLP171 T02171011
cycle: 23

Station Type Date Time Source
KIRK TAF UTC NOAA

Error!

Example: see airport list